createdAt,value
2022-09-16T00:01:14.556Z,423.17
2022-09-16T00:06:21.675Z,423.60
2022-09-16T00:11:28.848Z,424.30
2022-09-16T00:16:36.191Z,425.52
2022-09-16T00:21:43.270Z,425.42
2022-09-16T00:26:50.480Z,423.74
2022-09-16T00:31:57.647Z,423.29
2022-09-16T00:37:04.783Z,422.70
2022-09-16T00:42:11.987Z,422.15
2022-09-16T00:47:19.253Z,422.61
2022-09-16T00:52:26.411Z,422.49
2022-09-16T00:57:33.653Z,422.19
2022-09-16T01:02:40.930Z,421.68
2022-09-16T01:07:48.131Z,420.38
2022-09-16T01:12:55.355Z,420.58
2022-09-16T01:18:02.548Z,419.33
2022-09-16T01:23:09.725Z,418.71
2022-09-16T01:28:16.968Z,419.51
2022-09-16T01:33:24.155Z,419.40
2022-09-16T01:38:31.305Z,419.87
2022-09-16T01:43:38.463Z,419.50
2022-09-16T01:48:46.496Z,419.45
2022-09-16T01:53:52.940Z,419.86
2022-09-16T01:59:00.068Z,419.65
2022-09-16T02:04:07.222Z,418.46
2022-09-16T02:09:14.358Z,418.28
2022-09-16T02:14:21.596Z,417.81
2022-09-16T02:19:28.837Z,418.69
2022-09-16T02:24:36.089Z,419.00
2022-09-16T02:29:43.291Z,420.57
2022-09-16T02:34:50.521Z,420.33
2022-09-16T02:39:57.847Z,420.74
2022-09-16T02:45:04.948Z,420.57
2022-09-16T02:50:12.538Z,420.64
2022-09-16T02:55:19.737Z,420.70
2022-09-16T03:00:26.999Z,420.75
2022-09-16T03:05:34.272Z,421.90
2022-09-16T03:10:41.562Z,423.17
2022-09-16T03:15:48.858Z,423.48
2022-09-16T03:20:56.073Z,423.92
2022-09-16T03:26:03.243Z,424.01
2022-09-16T03:31:10.582Z,424.11
2022-09-16T03:36:17.767Z,425.40
2022-09-16T03:41:24.976Z,425.07
2022-09-16T03:46:32.230Z,425.03
2022-09-16T03:51:39.464Z,425.81
2022-09-16T03:56:46.646Z,426.20
2022-09-16T04:01:53.871Z,426.39
2022-09-16T04:07:01.117Z,427.55
2022-09-16T04:12:08.294Z,428.01
2022-09-16T04:17:15.509Z,427.94
2022-09-16T04:22:22.735Z,428.37
2022-09-16T04:27:29.919Z,428.88
2022-09-16T04:32:37.079Z,429.46
2022-09-16T04:37:44.297Z,429.68
2022-09-16T04:42:51.534Z,429.56
2022-09-16T04:47:58.745Z,430.31
2022-09-16T04:53:05.950Z,429.46
2022-09-16T04:58:13.157Z,429.84
2022-09-16T05:03:20.443Z,429.59
2022-09-16T05:08:27.612Z,429.70
2022-09-16T05:13:34.860Z,429.38
2022-09-16T05:18:42.071Z,429.68
2022-09-16T05:23:49.639Z,429.49
2022-09-16T05:28:56.483Z,428.82
2022-09-16T05:34:03.668Z,428.96
2022-09-16T05:39:22.782Z,429.38
2022-09-16T05:44:18.143Z,429.73
2022-09-16T05:49:25.382Z,429.72
2022-09-16T05:54:32.851Z,429.86
2022-09-16T05:59:39.936Z,429.50
2022-09-16T06:04:47.141Z,429.00
2022-09-16T06:09:54.512Z,429.38
2022-09-16T06:15:01.634Z,429.79
2022-09-16T06:20:08.861Z,429.66
2022-09-16T06:25:16.233Z,429.96
2022-09-16T06:30:24.667Z,430.17
2022-09-16T06:35:30.569Z,429.97
2022-09-16T06:40:37.966Z,429.84
2022-09-16T06:45:45.188Z,429.66
2022-09-16T06:50:52.380Z,430.58
2022-09-16T06:55:59.710Z,430.42
2022-09-16T07:01:06.918Z,430.80
2022-09-16T07:06:14.254Z,430.68
2022-09-16T07:11:21.647Z,429.71
2022-09-16T07:16:28.798Z,429.41
2022-09-16T07:21:36.028Z,430.55
2022-09-16T07:26:43.355Z,430.06
2022-09-16T07:31:50.399Z,429.92
2022-09-16T07:36:57.618Z,429.04
2022-09-16T07:42:06.279Z,428.54
2022-09-16T07:47:12.051Z,428.02
2022-09-16T07:52:19.228Z,428.22
2022-09-16T07:57:26.552Z,428.37
2022-09-16T08:02:33.739Z,428.03
2022-09-16T08:07:40.896Z,427.63
2022-09-16T08:12:48.220Z,428.34
2022-09-16T08:17:55.355Z,428.24
2022-09-16T08:23:02.583Z,427.14
2022-09-16T08:28:09.894Z,425.99
2022-09-16T08:33:16.924Z,425.66
2022-09-16T08:38:24.104Z,426.05
2022-09-16T08:43:31.513Z,424.84
2022-09-16T08:48:38.590Z,424.98
2022-09-16T08:53:45.804Z,425.43
2022-09-16T08:58:53.140Z,426.01
2022-09-16T09:04:00.209Z,426.13
2022-09-16T09:09:07.471Z,426.90
2022-09-16T09:14:14.899Z,426.79
2022-09-16T09:19:22.040Z,427.18
2022-09-16T09:24:29.229Z,427.22
2022-09-16T09:29:36.590Z,427.26
2022-09-16T09:34:43.643Z,428.18
2022-09-16T09:39:50.932Z,428.16
2022-09-16T09:45:01.421Z,428.32
2022-09-16T09:50:05.254Z,427.56
2022-09-16T09:55:16.126Z,428.07
2022-09-16T10:00:19.906Z,427.59
2022-09-16T10:05:27.037Z,427.40
2022-09-16T10:10:34.296Z,427.04
2022-09-16T10:15:41.691Z,426.28
2022-09-16T10:20:48.813Z,427.00
2022-09-16T10:25:56.033Z,427.28
2022-09-16T10:31:03.567Z,428.14
2022-09-16T10:36:10.598Z,428.63
2022-09-16T10:41:17.865Z,429.37
2022-09-16T10:46:25.297Z,429.37
2022-09-16T10:51:32.307Z,429.64
2022-09-16T10:56:39.522Z,430.50
2022-09-16T11:01:48.147Z,431.40
2022-09-16T11:06:53.937Z,432.12
2022-09-16T11:12:01.163Z,432.94
2022-09-16T11:17:08.620Z,432.64
2022-09-16T11:22:15.696Z,432.09
2022-09-16T11:27:23.019Z,431.49
2022-09-16T11:32:30.429Z,431.55
2022-09-16T11:37:37.536Z,431.36
2022-09-16T11:42:45.810Z,430.80
2022-09-16T11:47:52.166Z,431.20
2022-09-16T11:53:04.446Z,431.38
2022-09-16T11:58:06.500Z,430.59
2022-09-16T12:03:14.039Z,429.14
2022-09-16T12:08:21.031Z,426.96
2022-09-16T12:13:28.939Z,425.33
2022-09-16T12:18:36.341Z,424.04
2022-09-16T12:23:43.462Z,423.39
2022-09-16T12:28:50.678Z,423.01
2022-09-16T12:33:58.052Z,423.37
2022-09-16T12:39:05.145Z,422.97
2022-09-16T12:44:30.440Z,422.63
2022-09-16T12:49:19.809Z,422.59
2022-09-16T12:54:26.962Z,422.48
2022-09-16T12:59:34.215Z,422.38
2022-09-16T13:04:42.655Z,422.88
2022-09-16T13:09:49.739Z,422.98
2022-09-16T13:14:56.940Z,422.94
2022-09-16T13:20:04.336Z,423.22
2022-09-16T13:25:11.401Z,422.88
2022-09-16T13:30:18.645Z,422.96
2022-09-16T13:35:26.098Z,423.52
2022-09-16T13:40:33.296Z,423.78
2022-09-16T13:45:40.482Z,423.54
2022-09-16T13:50:47.857Z,422.89
2022-09-16T13:55:54.985Z,421.94
2022-09-16T14:01:02.193Z,420.72
2022-09-16T14:06:09.614Z,420.45
2022-09-16T14:11:16.698Z,419.77
2022-09-16T14:16:24.015Z,419.31
2022-09-16T14:21:31.288Z,420.03
2022-09-16T14:26:38.428Z,419.34
2022-09-16T14:31:45.679Z,418.88
2022-09-16T14:36:53.063Z,419.16
2022-09-16T14:42:00.136Z,420.23
2022-09-16T14:47:10.019Z,419.42
2022-09-16T14:52:14.763Z,420.86
2022-09-16T14:57:21.857Z,420.96
2022-09-16T15:02:29.131Z,421.15
2022-09-16T15:07:46.052Z,421.13
2022-09-16T15:12:43.581Z,420.62
2022-09-16T15:17:53.289Z,420.46
2022-09-16T15:22:58.165Z,420.47
2022-09-16T15:28:05.319Z,420.35
2022-09-16T15:33:12.571Z,418.86
2022-09-16T15:38:19.902Z,419.83
2022-09-16T15:43:27.035Z,421.31
2022-09-16T15:48:34.301Z,420.78
2022-09-16T15:53:41.640Z,420.23
2022-09-16T15:58:48.701Z,420.48
2022-09-16T16:03:55.950Z,420.50
2022-09-16T16:09:03.258Z,420.21
2022-09-16T16:14:10.316Z,420.34
2022-09-16T16:19:17.547Z,419.35
2022-09-16T16:24:24.943Z,418.57
2022-09-16T16:29:32.021Z,418.57
2022-09-16T16:34:39.235Z,419.45
2022-09-16T16:39:46.628Z,419.28
2022-09-16T16:44:53.705Z,419.45
2022-09-16T16:50:00.905Z,418.91
2022-09-16T16:55:08.312Z,418.61
2022-09-16T17:00:15.421Z,417.91
2022-09-16T17:05:22.657Z,418.67
2022-09-16T17:10:29.984Z,419.40
2022-09-16T17:15:37.081Z,419.14
2022-09-16T17:20:44.317Z,418.56
2022-09-16T17:25:51.714Z,418.66
2022-09-16T17:30:58.921Z,418.14
2022-09-16T17:36:06.096Z,418.54
2022-09-16T17:41:13.454Z,418.56
2022-09-16T17:46:20.616Z,417.73
2022-09-16T17:51:27.792Z,417.29
2022-09-16T17:56:35.164Z,415.79
2022-09-16T18:01:42.242Z,416.78
2022-09-16T18:06:49.437Z,415.00
2022-09-16T18:11:56.791Z,416.50
2022-09-16T18:17:03.914Z,415.30
2022-09-16T18:22:11.051Z,414.44
2022-09-16T18:27:18.685Z,412.51
2022-09-16T18:32:25.910Z,411.49
2022-09-16T18:37:33.187Z,411.16
2022-09-16T18:42:40.900Z,411.05
2022-09-16T18:47:48.206Z,411.00
2022-09-16T18:52:55.467Z,411.51
2022-09-16T18:58:02.859Z,411.68
2022-09-16T19:03:09.940Z,410.64
2022-09-16T19:08:17.181Z,410.69
2022-09-16T19:13:24.558Z,411.18
2022-09-16T19:18:31.641Z,411.17
2022-09-16T19:23:38.853Z,410.59
2022-09-16T19:28:46.190Z,411.12
2022-09-16T19:33:53.250Z,410.68
2022-09-16T19:39:00.434Z,410.25
2022-09-16T19:44:07.738Z,410.42
2022-09-16T19:49:14.858Z,410.63
2022-09-16T19:54:22.055Z,410.57
2022-09-16T19:59:29.416Z,409.33
2022-09-16T20:04:36.544Z,409.60
2022-09-16T20:09:43.795Z,410.19
2022-09-16T20:14:51.109Z,409.56
2022-09-16T20:19:58.207Z,409.81
2022-09-16T20:25:22.062Z,409.52
2022-09-16T20:30:12.881Z,409.22
2022-09-16T20:35:19.981Z,409.48
2022-09-16T20:40:27.320Z,409.63
2022-09-16T20:45:34.601Z,409.65
2022-09-16T20:50:41.677Z,410.01
2022-09-16T20:55:48.950Z,409.77
2022-09-16T21:00:56.664Z,410.23
2022-09-16T21:06:03.654Z,411.16
2022-09-16T21:11:11.813Z,411.67
2022-09-16T21:16:19.192Z,412.15
2022-09-16T21:21:26.267Z,412.62
2022-09-16T21:26:33.504Z,411.78
2022-09-16T21:31:41.112Z,410.89
2022-09-16T21:36:47.910Z,409.79
2022-09-16T21:41:55.107Z,408.94
2022-09-16T21:47:02.405Z,408.54
2022-09-16T21:52:09.511Z,408.22
2022-09-16T21:57:17.105Z,407.59
2022-09-16T22:02:28.464Z,406.29
2022-09-16T22:07:31.447Z,405.53
2022-09-16T22:12:38.636Z,405.99
2022-09-16T22:17:48.881Z,406.63
2022-09-16T22:22:53.682Z,407.27
2022-09-16T22:28:00.816Z,407.10
2022-09-16T22:33:08.119Z,407.63
2022-09-16T22:38:15.198Z,407.92
2022-09-16T22:43:22.434Z,408.14
2022-09-16T22:48:29.818Z,408.62
2022-09-16T22:53:36.977Z,408.39
2022-09-16T22:58:44.239Z,407.54
2022-09-16T23:03:51.582Z,407.39
2022-09-16T23:08:58.746Z,405.97
2022-09-16T23:14:05.888Z,405.78
2022-09-16T23:19:13.225Z,405.54
2022-09-16T23:24:20.341Z,405.57
2022-09-16T23:29:27.558Z,405.41
2022-09-16T23:34:34.866Z,405.61
2022-09-16T23:39:41.985Z,405.44
2022-09-16T23:44:49.146Z,405.25
2022-09-16T23:49:56.443Z,405.56
2022-09-16T23:55:04.059Z,405.86
